Time;durP1;ratioP1;P1;durP2;ratioP2;P2;SDS_P1;SDS_P2;PMS_P1;PMS_P2;Temp;Humidity;BMP_temperature;BMP_pressure;BME280_temperature;BME280_humidity;BME280_pressure;Samples;Min_cycle;Max_cycle;Signal;HPM_P1;HPM_P2
2023/03/26 00:01:45;;;;;;;10.80;10.50;;;7.90;99.90;;;;;;6241118;23;20191;-80
2023/03/26 00:04:13;;;;;;;10.70;10.40;;;7.90;99.90;;;;;;6241324;23;20198;-81
2023/03/26 00:06:40;;;;;;;10.63;10.33;;;7.90;99.90;;;;;;6241449;23;20203;-80
2023/03/26 00:09:11;;;;;;;10.87;10.57;;;7.90;99.90;;;;;;6241179;22;20202;-80
2023/03/26 00:11:39;;;;;;;10.70;10.40;;;7.90;99.90;;;;;;6242823;23;20190;-80
2023/03/26 00:14:12;;;;;;;10.90;10.60;;;7.90;99.90;;;;;;6244018;23;20257;-79
2023/03/26 00:16:41;;;;;;;10.90;10.60;;;7.90;99.90;;;;;;6246968;22;20206;-78
2023/03/26 00:19:09;;;;;;;10.90;10.60;;;7.90;99.90;;;;;;6249105;22;20191;-80
2023/03/26 00:21:37;;;;;;;10.90;10.60;;;7.90;99.90;;;;;;6247836;23;20201;-80
2023/03/26 00:24:08;;;;;;;11.07;10.77;;;7.90;99.90;;;;;;6249047;22;20218;-79
2023/03/26 00:26:39;;;;;;;10.87;10.57;;;7.90;99.90;;;;;;6249452;22;20180;-79
2023/03/26 00:29:10;;;;;;;10.93;10.63;;;7.90;99.90;;;;;;6249062;22;20202;-79
2023/03/26 00:31:44;;;;;;;11.20;10.90;;;7.90;99.90;;;;;;6250805;22;20195;-79
2023/03/26 00:34:14;;;;;;;10.77;10.47;;;7.90;99.90;;;;;;6250836;22;20219;-79
2023/03/26 00:36:42;;;;;;;10.80;10.50;;;7.80;99.90;;;;;;6250829;22;20190;-79
2023/03/26 00:39:12;;;;;;;11.03;10.73;;;7.90;99.90;;;;;;6250239;22;20179;-80
2023/03/26 00:41:45;;;;;;;10.90;10.60;;;7.90;99.90;;;;;;6250676;22;20225;-80
2023/03/26 00:44:15;;;;;;;10.77;10.47;;;7.90;99.90;;;;;;6250841;22;20175;-79
2023/03/26 00:46:42;;;;;;;10.90;10.60;;;7.80;99.90;;;;;;6250375;22;20191;-78
2023/03/26 00:49:13;;;;;;;11.10;10.80;;;7.90;99.90;;;;;;6248157;22;20202;-81
2023/03/26 00:51:41;;;;;;;10.93;10.63;;;7.90;99.90;;;;;;6245066;23;20203;-81
2023/03/26 00:54:08;;;;;;;11.10;10.80;;;7.90;99.90;;;;;;6245594;23;20222;-80
2023/03/26 00:56:37;;;;;;;11.07;10.77;;;7.90;99.90;;;;;;6243411;23;20214;-80
2023/03/26 00:59:08;;;;;;;10.93;10.63;;;7.80;99.90;;;;;;6242120;22;20210;-80
2023/03/26 01:01:37;;;;;;;10.90;10.60;;;7.80;99.90;;;;;;6239484;23;20285;-80
2023/03/26 01:04:33;;;;;;;10.53;10.23;;;7.80;99.90;;;;;;6238323;23;20225;-80
2023/03/26 01:07:05;;;;;;;10.67;10.37;;;7.80;99.90;;;;;;6237980;23;20195;-82
2023/03/26 01:09:41;;;;;;;10.70;10.40;;;7.80;99.90;;;;;;6237153;22;20206;-81
2023/03/26 01:12:18;;;;;;;10.83;10.53;;;7.90;99.90;;;;;;6238332;23;20206;-81
2023/03/26 01:14:48;;;;;;;10.60;10.30;;;7.90;99.90;;;;;;6236629;23;20190;-81
2023/03/26 01:17:20;;;;;;;10.77;10.47;;;7.90;99.90;;;;;;6238090;23;20199;-81
2023/03/26 01:19:55;;;;;;;10.80;10.50;;;7.80;99.90;;;;;;6248006;22;20183;-81
2023/03/26 01:22:26;;;;;;;10.50;10.20;;;7.90;99.90;;;;;;6243234;23;20233;-81
2023/03/26 01:24:57;;;;;;;10.50;10.20;;;7.90;99.90;;;;;;6241469;22;20191;-81
2023/03/26 01:27:32;;;;;;;10.80;10.50;;;7.80;99.90;;;;;;6239296;23;20210;-81
2023/03/26 01:30:11;;;;;;;10.53;10.23;;;7.80;99.90;;;;;;6234270;22;20211;-81
2023/03/26 01:32:59;;;;;;;10.50;10.20;;;7.90;99.90;;;;;;6235675;23;20191;-81
2023/03/26 01:35:45;;;;;;;10.60;10.30;;;7.90;99.90;;;;;;6237413;23;20198;-82
2023/03/26 01:38:23;;;;;;;10.70;10.40;;;7.80;99.90;;;;;;6236366;23;20202;-80
2023/03/26 01:44:25;;;;;;;10.50;10.20;;;7.80;99.90;;;;;;5142171;27;1461572;-79
2023/03/26 01:46:54;;;;;;;10.70;10.40;;;7.80;99.90;;;;;;5168201;27;20255;-82
2023/03/26 01:49:22;;;;;;;10.63;10.33;;;7.80;99.90;;;;;;5157427;27;20292;-79
2023/03/26 01:51:54;;;;;;;10.70;10.40;;;7.70;99.90;;;;;;5144860;27;20234;-81
2023/03/26 01:54:26;;;;;;;10.70;10.40;;;7.70;99.90;;;;;;5144374;27;20236;-80
2023/03/26 01:57:10;;;;;;;10.77;10.47;;;7.70;99.90;;;;;;5145714;27;20223;-81
2023/03/26 02:00:06;;;;;;;10.60;10.30;;;7.70;99.90;;;;;;5144634;27;20228;-80
2023/03/26 02:02:44;;;;;;;10.40;10.10;;;7.70;99.90;;;;;;5147420;27;20227;-81
2023/03/26 02:05:22;;;;;;;10.60;10.30;;;7.70;99.90;;;;;;5148559;27;20283;-80
2023/03/26 02:07:57;;;;;;;10.50;10.20;;;7.70;99.90;;;;;;5147068;27;20319;-81
2023/03/26 02:10:31;;;;;;;10.30;10.00;;;7.70;99.90;;;;;;5144887;27;20219;-80
2023/03/26 02:12:59;;;;;;;10.50;10.20;;;7.70;99.90;;;;;;5144747;27;20306;-81
2023/03/26 02:15:39;;;;;;;10.50;10.20;;;7.70;99.90;;;;;;5144669;27;20235;-81
2023/03/26 02:18:09;;;;;;;10.50;10.20;;;7.70;99.90;;;;;;5145259;27;20232;-80
2023/03/26 02:20:37;;;;;;;10.30;10.00;;;7.70;99.90;;;;;;5150617;27;20227;-79
2023/03/26 02:23:07;;;;;;;10.37;10.07;;;7.70;99.90;;;;;;5148049;27;20228;-80
2023/03/26 02:25:38;;;;;;;10.37;10.07;;;7.70;99.90;;;;;;5146540;27;20220;-80
2023/03/26 02:28:06;;;;;;;10.60;10.30;;;7.70;99.90;;;;;;5146635;27;20239;-80
2023/03/26 02:31:05;;;;;;;10.43;10.13;;;7.80;99.90;;;;;;5145752;27;20296;-80
2023/03/26 02:33:33;;;;;;;10.40;10.10;;;7.70;99.90;;;;;;5145181;27;20417;-80
2023/03/26 02:36:01;;;;;;;10.23;9.93;;;7.70;99.90;;;;;;5144272;27;20235;-81
2023/03/26 02:38:32;;;;;;;10.10;9.80;;;7.70;99.90;;;;;;5143403;27;20224;-80
2023/03/26 02:41:00;;;;;;;10.30;10.00;;;7.70;99.90;;;;;;5143955;27;20225;-80
2023/03/26 02:43:28;;;;;;;10.40;10.10;;;7.70;99.90;;;;;;5142595;27;20224;-80
2023/03/26 02:45:58;;;;;;;10.50;10.20;;;7.80;99.90;;;;;;5144112;27;20307;-80
2023/03/26 02:48:27;;;;;;;10.30;10.00;;;7.70;99.90;;;;;;5143031;27;20291;-80
2023/03/26 02:50:56;;;;;;;10.17;9.87;;;7.70;99.90;;;;;;5143815;27;20267;-80
2023/03/26 02:53:28;;;;;;;10.20;9.90;;;7.70;99.90;;;;;;5143297;27;20359;-80
2023/03/26 02:55:56;;;;;;;10.23;9.93;;;7.60;99.90;;;;;;5129576;28;20232;-80
2023/03/26 02:58:25;;;;;;;10.17;9.87;;;7.60;99.90;;;;;;5129459;27;20256;-81
2023/03/26 03:00:54;;;;;;;10.57;10.27;;;7.60;99.90;;;;;;5132000;28;20224;-81
2023/03/26 03:03:23;;;;;;;10.60;10.30;;;7.60;99.90;;;;;;5138152;28;20225;-80
2023/03/26 03:05:55;;;;;;;10.60;10.30;;;7.60;99.90;;;;;;5137090;28;20303;-80
2023/03/26 03:08:26;;;;;;;10.87;10.57;;;7.50;99.90;;;;;;5132259;27;20275;-81
2023/03/26 03:11:01;;;;;;;10.80;10.50;;;7.50;99.90;;;;;;5134629;27;20236;-80
2023/03/26 03:13:30;;;;;;;10.90;10.60;;;7.50;99.90;;;;;;5131261;28;20284;-80
2023/03/26 03:15:58;;;;;;;10.70;10.40;;;7.50;99.90;;;;;;5131034;28;21116;-80
2023/03/26 03:18:27;;;;;;;10.70;10.40;;;7.50;99.90;;;;;;5129709;27;20271;-80
2023/03/26 03:21:01;;;;;;;10.53;10.23;;;7.50;99.90;;;;;;5129447;28;20320;-81
2023/03/26 03:23:29;;;;;;;10.60;10.30;;;7.50;99.90;;;;;;5128968;28;20243;-81
2023/03/26 03:25:58;;;;;;;10.77;10.47;;;7.40;99.90;;;;;;5129030;28;20308;-80
2023/03/26 03:28:26;;;;;;;10.30;10.00;;;7.40;99.90;;;;;;5128831;28;20239;-80
2023/03/26 03:30:56;;;;;;;10.50;10.20;;;7.40;99.90;;;;;;5128354;28;20233;-80
2023/03/26 03:33:26;;;;;;;10.50;10.20;;;7.40;99.90;;;;;;5128459;28;20229;-81
2023/03/26 03:35:58;;;;;;;10.57;10.27;;;7.40;99.90;;;;;;5128412;28;20242;-80
2023/03/26 03:38:25;;;;;;;10.80;10.50;;;7.40;99.90;;;;;;5127987;27;20217;-81
2023/03/26 03:40:54;;;;;;;10.67;10.37;;;7.40;99.90;;;;;;5128925;28;20267;-81
2023/03/26 03:43:23;;;;;;;10.50;10.20;;;7.40;99.90;;;;;;5128371;28;20292;-80
2023/03/26 03:45:54;;;;;;;10.50;10.20;;;7.40;99.90;;;;;;5129369;28;20316;-80
2023/03/26 03:48:22;;;;;;;10.60;10.30;;;7.30;99.90;;;;;;5127968;27;20233;-80
2023/03/26 03:50:54;;;;;;;10.60;10.30;;;7.30;99.90;;;;;;5128428;28;20237;-80
2023/03/26 03:53:25;;;;;;;10.80;10.50;;;7.30;99.90;;;;;;5129764;28;20264;-81
2023/03/26 03:55:54;;;;;;;10.60;10.30;;;7.30;99.90;;;;;;5139422;28;20258;-80
2023/03/26 03:58:23;;;;;;;10.60;10.30;;;7.20;99.90;;;;;;5133455;27;20263;-80
2023/03/26 04:00:51;;;;;;;10.70;10.40;;;7.20;99.90;;;;;;5131634;28;20247;-80
2023/03/26 04:03:20;;;;;;;10.67;10.37;;;7.10;99.90;;;;;;5129683;28;20237;-80
2023/03/26 04:05:53;;;;;;;10.87;10.57;;;7.10;99.90;;;;;;5128000;28;20255;-80
2023/03/26 04:08:23;;;;;;;10.50;10.20;;;7.10;99.90;;;;;;5128770;27;20244;-80
2023/03/26 04:10:51;;;;;;;10.53;10.23;;;7.00;99.90;;;;;;5129278;28;20286;-80
2023/03/26 04:13:18;;;;;;;10.80;10.50;;;7.00;99.90;;;;;;5128577;28;20221;-80
2023/03/26 04:15:48;;;;;;;10.60;10.30;;;7.00;99.90;;;;;;5128305;28;20240;-80
2023/03/26 04:18:17;;;;;;;10.80;10.50;;;7.00;99.90;;;;;;5129109;28;20239;-80
2023/03/26 04:20:46;;;;;;;10.73;10.43;;;7.00;99.90;;;;;;5130673;28;20238;-80
2023/03/26 04:23:16;;;;;;;10.60;10.30;;;6.90;99.90;;;;;;5130350;28;20327;-80
2023/03/26 04:25:53;;;;;;;10.60;10.30;;;6.90;99.90;;;;;;5131155;28;20286;-80
2023/03/26 04:28:34;;;;;;;10.87;10.57;;;6.80;99.90;;;;;;5128434;28;20228;-81
2023/03/26 04:31:04;;;;;;;10.70;10.40;;;6.80;99.90;;;;;;5127874;28;20294;-81
2023/03/26 04:33:34;;;;;;;10.60;10.30;;;6.80;99.90;;;;;;5127628;28;20212;-80
2023/03/26 04:36:02;;;;;;;10.80;10.50;;;6.80;99.90;;;;;;5128112;28;20334;-81
2023/03/26 04:38:40;;;;;;;10.60;10.30;;;6.80;99.90;;;;;;5127321;27;20315;-81
2023/03/26 04:41:12;;;;;;;10.67;10.37;;;6.80;99.90;;;;;;5127759;28;20225;-80
2023/03/26 04:43:41;;;;;;;10.50;10.20;;;6.80;99.90;;;;;;5126548;28;20276;-81
2023/03/26 04:46:09;;;;;;;10.70;10.40;;;6.70;99.90;;;;;;5127367;28;20247;-81
2023/03/26 04:48:38;;;;;;;10.33;10.03;;;6.80;99.90;;;;;;5126615;28;20229;-81
2023/03/26 04:51:08;;;;;;;10.80;10.50;;;6.70;99.90;;;;;;5127227;28;20213;-82
2023/03/26 04:53:36;;;;;;;10.73;10.43;;;6.70;99.90;;;;;;5128654;28;20259;-81
2023/03/26 04:56:15;;;;;;;10.70;10.40;;;6.70;99.90;;;;;;5133017;27;20302;-81
2023/03/26 04:58:46;;;;;;;10.90;10.60;;;6.70;99.90;;;;;;5125561;28;20267;-81
2023/03/26 05:01:15;;;;;;;10.80;10.50;;;6.70;99.90;;;;;;5125946;28;20224;-81
2023/03/26 05:03:44;;;;;;;10.60;10.30;;;6.70;99.90;;;;;;5125941;28;20237;-81
2023/03/26 05:06:13;;;;;;;10.60;10.30;;;6.60;99.90;;;;;;5127219;28;20248;-81
2023/03/26 05:08:41;;;;;;;10.70;10.40;;;6.70;99.90;;;;;;5126251;28;20286;-81
2023/03/26 05:11:13;;;;;;;11.00;10.70;;;6.70;99.90;;;;;;5127069;28;20256;-81
2023/03/26 05:13:41;;;;;;;11.00;10.70;;;6.70;99.90;;;;;;5127433;28;20219;-81
2023/03/26 05:16:10;;;;;;;11.07;10.77;;;6.60;99.90;;;;;;5127157;28;20232;-81
2023/03/26 05:18:39;;;;;;;10.97;10.67;;;6.60;99.90;;;;;;5126691;27;20247;-81
2023/03/26 05:21:08;;;;;;;10.90;10.60;;;6.60;99.90;;;;;;5127219;28;20288;-81
2023/03/26 05:23:36;;;;;;;10.97;10.67;;;6.60;99.90;;;;;;5126590;28;20237;-81
2023/03/26 05:26:07;;;;;;;11.00;10.70;;;6.60;99.90;;;;;;5126975;28;20239;-81
2023/03/26 05:28:38;;;;;;;10.60;10.30;;;6.60;99.90;;;;;;5126667;27;20235;-81
2023/03/26 05:31:07;;;;;;;10.70;10.40;;;6.60;99.90;;;;;;5128320;28;20232;-81
2023/03/26 05:33:36;;;;;;;10.83;10.53;;;6.60;99.90;;;;;;5131620;28;20225;-81
2023/03/26 05:36:06;;;;;;;10.70;10.40;;;6.60;99.90;;;;;;5129819;28;20232;-81
2023/03/26 05:38:34;;;;;;;10.43;10.13;;;6.60;99.90;;;;;;5128748;27;20284;-81
2023/03/26 05:41:05;;;;;;;10.47;10.17;;;6.70;99.90;;;;;;5128603;28;20316;-81
2023/03/26 05:43:35;;;;;;;10.60;10.30;;;6.70;99.90;;;;;;5127548;28;20285;-81
2023/03/26 05:46:03;;;;;;;10.70;10.40;;;6.70;99.90;;;;;;5124291;28;20248;-81
2023/03/26 05:48:30;;;;;;;10.50;10.20;;;6.70;99.90;;;;;;5106192;28;20233;-81
2023/03/26 05:53:42;;;;;;;10.47;10.17;;;6.80;99.90;;;;;;5105417;28;20221;-81
2023/03/26 05:56:12;;;;;;;10.50;10.20;;;6.80;99.90;;;;;;5105937;28;20257;-81
2023/03/26 05:58:43;;;;;;;10.43;10.13;;;6.80;99.90;;;;;;5109208;28;20232;-80
2023/03/26 06:01:21;;;;;;;10.43;10.13;;;6.80;99.90;;;;;;5110342;28;20248;-80
2023/03/26 06:03:50;;;;;;;10.30;10.00;;;6.80;99.90;;;;;;5109231;28;20229;-81
2023/03/26 06:06:19;;;;;;;10.40;10.10;;;6.80;99.90;;;;;;5108413;28;20230;-81
2023/03/26 06:08:50;;;;;;;10.60;10.30;;;6.70;99.90;;;;;;5115042;28;20320;-81
2023/03/26 06:11:20;;;;;;;10.40;10.10;;;6.80;99.90;;;;;;5114196;28;20282;-81
2023/03/26 06:16:33;;;;;;;10.50;10.20;;;6.80;99.90;;;;;;5113709;28;20230;-81
2023/03/26 06:19:02;;;;;;;10.40;10.10;;;6.80;99.90;;;;;;5117113;27;20227;-81
2023/03/26 06:21:32;;;;;;;10.30;10.00;;;6.90;99.90;;;;;;5114364;28;20261;-82
2023/03/26 06:24:02;;;;;;;10.30;10.00;;;6.90;99.90;;;;;;5104887;28;20252;-81
2023/03/26 06:26:31;;;;;;;10.47;10.17;;;6.90;99.90;;;;;;5104848;28;20233;-81
2023/03/26 06:29:01;;;;;;;10.30;10.00;;;7.00;99.90;;;;;;5105560;28;20229;-82
2023/03/26 06:31:30;;;;;;;10.33;10.03;;;7.00;99.90;;;;;;5110194;28;20222;-81
2023/03/26 06:33:59;;;;;;;10.00;9.70;;;7.00;99.90;;;;;;5110096;28;20240;-81
2023/03/26 06:36:29;;;;;;;10.23;9.93;;;7.00;99.90;;;;;;5110383;28;20275;-81
2023/03/26 06:38:59;;;;;;;10.30;10.00;;;7.00;99.90;;;;;;5109905;28;20264;-81
2023/03/26 06:41:28;;;;;;;10.33;10.03;;;7.00;99.90;;;;;;5113756;28;20268;-81
2023/03/26 06:43:57;;;;;;;10.30;10.00;;;7.10;99.90;;;;;;5106002;28;20332;-81
2023/03/26 06:46:28;;;;;;;10.30;10.00;;;7.10;99.90;;;;;;5109390;28;20308;-81
2023/03/26 06:48:56;;;;;;;10.10;9.80;;;7.10;99.90;;;;;;5110530;28;20236;-81
2023/03/26 06:51:24;;;;;;;10.20;9.90;;;7.20;99.90;;;;;;5108738;28;20285;-80
2023/03/26 06:53:55;;;;;;;10.27;9.97;;;7.20;99.90;;;;;;5107815;28;20229;-81
2023/03/26 06:56:24;;;;;;;10.17;9.87;;;7.30;99.90;;;;;;5107538;28;20304;-81
2023/03/26 06:58:54;;;;;;;10.00;9.70;;;7.30;99.90;;;;;;5108646;28;20229;-82
2023/03/26 07:01:24;;;;;;;10.43;10.13;;;7.40;99.90;;;;;;5109308;28;20454;-82
2023/03/26 07:04:02;;;;;;;10.27;9.97;;;7.50;99.90;;;;;;5111124;28;20221;-82
2023/03/26 07:06:31;;;;;;;10.40;10.10;;;7.50;99.90;;;;;;5110091;28;20251;-84
2023/03/26 07:09:01;;;;;;;10.33;10.03;;;7.50;99.90;;;;;;5117556;28;20332;-82
2023/03/26 07:11:31;;;;;;;10.40;10.10;;;7.50;99.90;;;;;;5125341;28;20236;-85
2023/03/26 07:13:59;;;;;;;9.83;9.53;;;7.60;99.90;;;;;;5125401;28;20221;-86
2023/03/26 07:16:29;;;;;;;10.67;10.37;;;7.60;99.90;;;;;;5137165;28;20237;-84
2023/03/26 07:19:09;;;;;;;10.50;10.20;;;7.60;99.90;;;;;;5129496;27;20251;-85
2023/03/26 07:21:38;;;;;;;10.37;10.07;;;7.60;99.90;;;;;;5124957;28;20225;-83
2023/03/26 07:24:06;;;;;;;10.33;10.03;;;7.60;99.90;;;;;;5132627;28;20233;-83
2023/03/26 07:26:56;;;;;;;10.40;10.10;;;7.60;99.90;;;;;;5114140;28;20237;-84
2023/03/26 07:29:34;;;;;;;10.27;9.97;;;7.60;99.90;;;;;;5123541;28;20236;-85
2023/03/26 07:32:17;;;;;;;10.50;10.20;;;7.60;99.90;;;;;;5129806;28;20258;-84
2023/03/26 07:34:55;;;;;;;10.60;10.30;;;7.70;99.90;;;;;;5129485;28;20289;-83
2023/03/26 07:37:44;;;;;;;10.10;9.80;;;7.70;99.90;;;;;;5130278;28;20255;-84
2023/03/26 07:40:30;;;;;;;10.30;10.00;;;7.70;99.90;;;;;;5128050;27;20233;-84
2023/03/26 07:43:08;;;;;;;10.23;9.93;;;7.80;99.90;;;;;;5128913;28;20225;-84
2023/03/26 07:45:40;;;;;;;10.40;10.10;;;7.80;99.90;;;;;;5128800;28;20249;-85
2023/03/26 07:48:17;;;;;;;10.40;10.10;;;7.80;99.90;;;;;;5128055;28;20232;-84
2023/03/26 07:50:58;;;;;;;10.37;10.07;;;7.90;99.90;;;;;;5129263;28;20225;-84
2023/03/26 07:53:27;;;;;;;10.40;10.10;;;7.90;99.90;;;;;;5130659;28;20338;-85
2023/03/26 07:56:04;;;;;;;10.40;10.10;;;7.90;99.90;;;;;;5129039;28;20213;-84
2023/03/26 07:58:51;;;;;;;10.10;9.80;;;8.00;99.90;;;;;;5128180;28;20216;-84
2023/03/26 08:01:29;;;;;;;10.30;10.00;;;8.00;99.90;;;;;;5120019;28;20221;-84
2023/03/26 08:04:34;;;;;;;10.20;9.90;;;8.00;99.90;;;;;;5106400;28;20225;-83
2023/03/26 08:07:14;;;;;;;10.20;9.90;;;8.00;99.90;;;;;;5119110;28;20229;-83
2023/03/26 08:09:52;;;;;;;10.10;9.80;;;8.00;99.90;;;;;;5119849;27;20237;-84
2023/03/26 08:12:30;;;;;;;10.20;9.90;;;8.00;99.90;;;;;;5119732;28;20248;-83
2023/03/26 08:15:10;;;;;;;10.10;9.80;;;7.90;99.90;;;;;;5117193;28;20229;-85
2023/03/26 08:17:45;;;;;;;10.20;9.90;;;7.90;99.90;;;;;;5109364;28;20252;-82
2023/03/26 08:20:33;;;;;;;10.27;9.97;;;7.90;99.90;;;;;;5109550;28;20264;-83
2023/03/26 08:23:09;;;;;;;10.30;10.00;;;7.90;99.90;;;;;;5117768;28;20229;-82
2023/03/26 08:25:48;;;;;;;10.27;9.97;;;7.90;99.90;;;;;;5116621;28;20267;-83
2023/03/26 08:28:44;;;;;;;9.97;9.67;;;7.90;99.90;;;;;;5107763;28;20308;-82
2023/03/26 08:31:14;;;;;;;9.97;9.67;;;7.80;99.90;;;;;;5107091;28;20317;-83
2023/03/26 08:33:42;;;;;;;10.10;9.80;;;7.80;99.90;;;;;;5109923;28;20227;-83
2023/03/26 08:36:11;;;;;;;9.93;9.63;;;7.80;99.90;;;;;;5107711;28;20238;-83
2023/03/26 08:38:42;;;;;;;10.20;9.90;;;7.80;99.90;;;;;;5108759;28;20236;-83
2023/03/26 08:42:12;;;;;;;10.30;10.00;;;7.70;99.90;;;;;;5109569;28;20263;-80
2023/03/26 08:45:35;;;;;;;10.10;9.80;;;7.70;99.90;;;;;;5100286;28;20233;-81
2023/03/26 08:48:55;;;;;;;10.27;9.97;;;7.60;99.90;;;;;;5087576;28;20556;-82
2023/03/26 08:55:44;;;;;;;10.50;10.20;;;7.50;99.90;;;;;;5106315;28;20232;-83
2023/03/26 09:02:36;;;;;;;10.00;9.70;;;7.40;99.90;;;;;;5112072;28;20229;-81
2023/03/26 09:05:56;;;;;;;9.60;9.30;;;7.40;99.90;;;;;;5112519;28;20320;-82
2023/03/26 09:09:19;;;;;;;9.60;9.30;;;7.40;99.90;;;;;;5110412;28;20284;-82
2023/03/26 09:12:52;;;;;;;9.50;9.20;;;7.40;99.90;;;;;;5088781;28;20233;-83
2023/03/26 09:16:09;;;;;;;9.80;9.50;;;7.40;99.90;;;;;;5044766;28;20316;-83
2023/03/26 09:19:51;;;;;;;9.97;9.67;;;7.40;99.90;;;;;;5107549;28;20312;-82
2023/03/26 09:23:05;;;;;;;9.87;9.57;;;7.40;99.90;;;;;;5107791;28;20234;-82
2023/03/26 09:26:18;;;;;;;9.93;9.63;;;7.40;99.90;;;;;;5092421;28;20298;-82
2023/03/26 09:29:40;;;;;;;9.80;9.50;;;7.40;99.90;;;;;;5104833;28;20241;-82
2023/03/26 09:33:14;;;;;;;9.43;9.13;;;7.40;99.90;;;;;;5108587;28;20289;-82
2023/03/26 09:36:16;;;;;;;9.57;9.27;;;7.50;99.90;;;;;;5045697;28;20235;-82
2023/03/26 09:38:46;;;;;;;9.60;9.30;;;7.40;99.90;;;;;;5110681;28;20258;-82
2023/03/26 09:41:17;;;;;;;9.90;9.60;;;7.40;99.90;;;;;;5110809;28;20222;-82
2023/03/26 09:44:39;;;;;;;9.87;9.57;;;7.40;99.90;;;;;;5110711;28;20233;-81
2023/03/26 09:47:42;;;;;;;9.90;9.60;;;7.40;99.90;;;;;;5108213;28;20225;-81
2023/03/26 09:50:29;;;;;;;9.77;9.47;;;7.40;99.90;;;;;;5109943;28;20300;-82
2023/03/26 09:53:36;;;;;;;9.50;9.20;;;7.40;99.90;;;;;;5109529;28;20225;-81
2023/03/26 09:56:17;;;;;;;9.43;9.13;;;7.40;99.90;;;;;;5110691;28;20284;-82
2023/03/26 09:59:54;;;;;;;9.07;8.77;;;7.40;99.90;;;;;;5110520;28;20300;-82
2023/03/26 10:02:47;;;;;;;9.20;8.90;;;7.40;99.90;;;;;;5087540;28;20279;-82
2023/03/26 10:05:53;;;;;;;9.47;9.17;;;7.40;99.90;;;;;;5113595;28;20218;-83
2023/03/26 10:08:52;;;;;;;9.37;9.07;;;7.40;99.90;;;;;;5114977;28;20217;-81
2023/03/26 10:11:37;;;;;;;9.30;9.00;;;7.40;99.90;;;;;;5116183;27;20311;-81
2023/03/26 10:14:17;;;;;;;9.70;9.40;;;7.40;99.90;;;;;;5114197;28;20292;-81
2023/03/26 10:17:03;;;;;;;9.57;9.27;;;7.30;99.90;;;;;;5117234;28;20258;-81
2023/03/26 10:19:59;;;;;;;9.53;9.23;;;7.30;99.90;;;;;;5117363;28;20309;-81
2023/03/26 10:22:45;;;;;;;9.60;9.30;;;7.40;99.90;;;;;;5118469;28;20236;-80
2023/03/26 10:25:32;;;;;;;9.70;9.40;;;7.40;99.90;;;;;;5118838;28;20261;-81
2023/03/26 10:28:19;;;;;;;9.80;9.50;;;7.30;99.90;;;;;;5120775;28;20244;-82
2023/03/26 10:31:18;;;;;;;9.80;9.50;;;7.30;99.90;;;;;;5122869;27;20276;-81
2023/03/26 10:34:01;;;;;;;9.70;9.40;;;7.30;99.90;;;;;;5122792;28;20209;-81
2023/03/26 10:36:36;;;;;;;9.67;9.37;;;7.30;99.90;;;;;;5122521;28;20249;-80
2023/03/26 10:39:36;;;;;;;9.70;9.40;;;7.30;99.90;;;;;;5134611;28;20254;-80
2023/03/26 10:42:25;;;;;;;9.80;9.50;;;7.30;99.90;;;;;;5142673;27;20225;-80
2023/03/26 10:45:20;;;;;;;9.90;9.60;;;7.20;99.90;;;;;;5142700;27;20233;-81
2023/03/26 10:49:04;;;;;;;9.73;9.43;;;7.20;99.90;;;;;;5142763;27;20225;-80
2023/03/26 10:51:50;;;;;;;10.00;9.70;;;7.20;99.90;;;;;;5093757;28;20233;-79
2023/03/26 10:54:34;;;;;;;10.10;9.80;;;7.30;99.90;;;;;;5140690;28;20233;-78
2023/03/26 10:57:05;;;;;;;10.00;9.70;;;7.30;99.90;;;;;;5141208;28;20233;-79
2023/03/26 10:59:32;;;;;;;9.80;9.50;;;7.30;99.90;;;;;;5141767;28;20232;-78
2023/03/26 11:02:27;;;;;;;10.10;9.80;;;7.30;99.90;;;;;;5141117;28;20281;-79
2023/03/26 11:05:10;;;;;;;9.90;9.60;;;7.30;99.90;;;;;;5140911;28;20232;-81
2023/03/26 11:07:46;;;;;;;9.93;9.63;;;7.30;99.90;;;;;;5137993;27;20289;-81
2023/03/26 11:10:21;;;;;;;10.07;9.77;;;7.40;99.90;;;;;;5134404;28;20243;-80
2023/03/26 11:12:54;;;;;;;10.13;9.83;;;7.40;99.90;;;;;;5133327;28;20224;-80
2023/03/26 11:15:29;;;;;;;10.10;9.80;;;7.30;99.90;;;;;;5131923;27;20247;-80
2023/03/26 11:18:11;;;;;;;10.10;9.80;;;7.30;99.90;;;;;;5131987;28;20228;-82
2023/03/26 11:20:45;;;;;;;10.33;10.03;;;7.30;99.90;;;;;;5131290;28;20233;-81
2023/03/26 11:23:35;;;;;;;10.30;10.00;;;7.30;99.90;;;;;;5131904;28;20228;-80
2023/03/26 11:26:11;;;;;;;10.20;9.90;;;7.30;99.90;;;;;;5131424;28;20239;-82
2023/03/26 11:29:06;;;;;;;9.90;9.60;;;7.30;99.90;;;;;;5132406;28;20236;-80
2023/03/26 11:31:52;;;;;;;10.00;9.70;;;7.30;99.90;;;;;;5133280;28;20224;-80
2023/03/26 11:34:34;;;;;;;10.20;9.90;;;7.40;99.90;;;;;;5134237;28;20228;-82
2023/03/26 11:37:13;;;;;;;10.00;9.70;;;7.40;99.90;;;;;;5133250;28;20225;-81
2023/03/26 11:39:53;;;;;;;10.10;9.80;;;7.50;99.90;;;;;;5132173;28;20266;-81
2023/03/26 11:42:28;;;;;;;10.07;9.77;;;7.50;99.90;;;;;;5132694;28;20300;-81
2023/03/26 11:45:01;;;;;;;9.80;9.50;;;7.60;99.90;;;;;;5132147;28;20285;-82
2023/03/26 11:47:35;;;;;;;9.80;9.50;;;7.60;99.90;;;;;;5133207;28;20220;-81
2023/03/26 11:50:13;;;;;;;9.90;9.60;;;7.60;99.90;;;;;;5132849;28;20263;-85
2023/03/26 11:52:45;;;;;;;9.70;9.40;;;7.70;99.90;;;;;;5131868;28;20284;-84
2023/03/26 11:55:23;;;;;;;9.80;9.50;;;7.80;99.90;;;;;;5133563;28;20217;-89
2023/03/26 11:58:04;;;;;;;9.73;9.43;;;7.80;99.90;;;;;;5129244;28;20320;-83
2023/03/26 12:00:32;;;;;;;9.67;9.37;;;7.80;99.90;;;;;;5128178;28;20236;-84
2023/03/26 12:03:01;;;;;;;9.60;9.30;;;7.80;99.90;;;;;;5129790;28;20236;-83
2023/03/26 12:05:32;;;;;;;9.67;9.37;;;7.80;99.90;;;;;;5129444;28;20324;-83
2023/03/26 12:08:10;;;;;;;9.60;9.30;;;7.80;99.90;;;;;;5129462;28;20221;-83
2023/03/26 12:10:47;;;;;;;9.80;9.50;;;7.90;99.90;;;;;;5129305;28;20228;-83
2023/03/26 12:13:32;;;;;;;9.40;9.10;;;8.00;99.90;;;;;;5130129;28;20225;-83
2023/03/26 12:16:11;;;;;;;9.40;9.10;;;8.00;99.90;;;;;;5130036;28;21140;-83
2023/03/26 12:18:42;;;;;;;9.67;9.37;;;8.10;99.90;;;;;;5128664;28;20231;-82
2023/03/26 12:21:15;;;;;;;9.40;9.10;;;8.20;99.90;;;;;;5130947;28;20236;-83
2023/03/26 12:23:56;;;;;;;9.53;9.23;;;8.40;99.90;;;;;;5128500;28;20236;-82
2023/03/26 12:26:43;;;;;;;9.40;9.10;;;8.50;99.90;;;;;;5115788;27;20264;-82
2023/03/26 12:29:14;;;;;;;9.17;8.87;;;8.70;99.90;;;;;;5123016;27;20233;-81
2023/03/26 12:31:51;;;;;;;9.20;8.90;;;9.10;99.90;;;;;;5130694;28;20229;-81
2023/03/26 12:34:21;;;;;;;9.40;9.10;;;9.40;99.90;;;;;;5134412;28;20347;-81
2023/03/26 12:36:52;;;;;;;9.03;8.73;;;9.70;99.90;;;;;;5128496;28;20237;-79
2023/03/26 12:39:30;;;;;;;9.57;9.27;;;10.20;99.90;;;;;;5126237;27;20227;-81
2023/03/26 12:42:01;;;;;;;9.40;9.10;;;10.80;99.90;;;;;;5113210;28;20287;-82
2023/03/26 12:44:31;;;;;;;9.80;9.50;;;11.30;99.90;;;;;;5112767;28;20252;-80
2023/03/26 12:47:18;;;;;;;9.77;9.47;;;11.70;99.90;;;;;;5106702;28;20264;-81
2023/03/26 12:49:46;;;;;;;9.70;9.40;;;12.00;99.90;;;;;;5106729;28;20226;-82
2023/03/26 12:52:52;;;;;;;9.73;9.43;;;12.00;99.90;;;;;;5108016;28;20226;-82
2023/03/26 12:55:53;;;;;;;9.57;9.27;;;12.10;99.90;;;;;;5109537;28;20232;-81
2023/03/26 12:58:54;;;;;;;9.90;9.60;;;12.40;99.90;;;;;;5107173;28;21160;-81
2023/03/26 13:01:34;;;;;;;9.83;9.53;;;12.60;99.90;;;;;;5106490;28;20272;-81
2023/03/26 13:04:38;;;;;;;9.70;9.40;;;12.90;99.90;;;;;;5106009;28;20321;-82
2023/03/26 13:07:17;;;;;;;9.80;9.50;;;13.10;99.90;;;;;;5105952;28;20636;-82
2023/03/26 13:10:28;;;;;;;9.80;9.50;;;13.20;99.90;;;;;;5106482;28;20260;-82
2023/03/26 13:13:11;;;;;;;9.60;9.30;;;13.40;99.90;;;;;;5101735;28;20305;-81
2023/03/26 13:15:48;;;;;;;9.60;9.30;;;13.70;99.90;;;;;;5105709;28;20245;-81
2023/03/26 13:18:30;;;;;;;9.83;9.53;;;13.90;99.90;;;;;;5105865;28;20281;-80
2023/03/26 13:21:04;;;;;;;9.73;9.43;;;14.10;99.90;;;;;;5106208;28;20285;-81
2023/03/26 13:23:41;;;;;;;9.97;9.67;;;14.20;99.90;;;;;;5106749;28;20260;-81
2023/03/26 13:26:29;;;;;;;9.70;9.40;;;14.60;99.90;;;;;;5106383;28;20225;-81
2023/03/26 13:29:04;;;;;;;9.60;9.30;;;14.80;99.90;;;;;;5105376;28;20272;-81
2023/03/26 13:31:39;;;;;;;9.75;9.45;;;15.20;99.90;;;;;;5105740;28;20240;-81
2023/03/26 13:34:16;;;;;;;9.57;9.27;;;15.30;99.90;;;;;;5106166;28;20221;-81
2023/03/26 13:36:56;;;;;;;9.90;9.60;;;15.30;99.90;;;;;;5105185;28;20232;-81
2023/03/26 13:39:33;;;;;;;10.18;9.88;;;15.50;99.90;;;;;;5104705;28;20241;-81
2023/03/26 13:42:25;;;;;;;10.00;9.70;;;15.30;99.90;;;;;;5105332;28;20272;-81
2023/03/26 13:45:03;;;;;;;10.10;9.80;;;14.60;99.90;;;;;;5112522;28;20213;-81
2023/03/26 13:47:36;;;;;;;10.33;10.03;;;13.90;99.90;;;;;;5106439;28;20350;-81
2023/03/26 13:50:14;;;;;;;10.27;9.97;;;13.30;99.90;;;;;;5105493;28;20291;-81
2023/03/26 13:52:47;;;;;;;10.13;9.83;;;13.30;99.90;;;;;;5105979;28;20226;-82
2023/03/26 13:55:23;;;;;;;9.83;9.53;;;13.20;99.90;;;;;;5105953;28;20786;-82